sensor_id;sensor_type;location;lat;lon;timestamp;P1;durP1;ratioP1;P2;durP2;ratioP2
19747;SDS011;10032;51.386;12.516;2023-03-01T00:01:22;18.00;;;10.03;;
19747;SDS011;10032;51.386;12.516;2023-03-01T00:03:49;16.80;;;9.50;;
19747;SDS011;10032;51.386;12.516;2023-03-01T00:06:15;18.03;;;9.03;;
19747;SDS011;10032;51.386;12.516;2023-03-01T00:08:40;15.30;;;9.47;;
19747;SDS011;10032;51.386;12.516;2023-03-01T00:13:37;14.27;;;9.13;;
19747;SDS011;10032;51.386;12.516;2023-03-01T00:16:03;19.07;;;8.80;;
19747;SDS011;10032;51.386;12.516;2023-03-01T00:18:30;16.73;;;9.57;;
19747;SDS011;10032;51.386;12.516;2023-03-01T00:20:56;12.47;;;8.50;;
19747;SDS011;10032;51.386;12.516;2023-03-01T00:23:22;16.30;;;9.73;;
19747;SDS011;10032;51.386;12.516;2023-03-01T00:25:48;14.93;;;9.30;;
19747;SDS011;10032;51.386;12.516;2023-03-01T00:28:14;15.90;;;10.20;;
19747;SDS011;10032;51.386;12.516;2023-03-01T00:30:40;14.23;;;9.00;;
19747;SDS011;10032;51.386;12.516;2023-03-01T00:33:05;15.77;;;9.53;;
19747;SDS011;10032;51.386;12.516;2023-03-01T00:35:35;18.37;;;10.13;;
19747;SDS011;10032;51.386;12.516;2023-03-01T00:38:01;17.30;;;9.83;;
19747;SDS011;10032;51.386;12.516;2023-03-01T00:40:27;17.40;;;9.47;;
19747;SDS011;10032;51.386;12.516;2023-03-01T00:42:53;15.60;;;9.87;;
19747;SDS011;10032;51.386;12.516;2023-03-01T00:45:19;19.40;;;10.73;;
19747;SDS011;10032;51.386;12.516;2023-03-01T00:47:45;11.73;;;8.10;;
19747;SDS011;10032;51.386;12.516;2023-03-01T00:50:11;16.37;;;10.37;;
19747;SDS011;10032;51.386;12.516;2023-03-01T00:52:37;16.43;;;8.67;;
19747;SDS011;10032;51.386;12.516;2023-03-01T00:55:03;16.90;;;9.40;;
19747;SDS011;10032;51.386;12.516;2023-03-01T00:57:29;13.00;;;8.77;;
19747;SDS011;10032;51.386;12.516;2023-03-01T00:59:54;12.77;;;8.73;;
19747;SDS011;10032;51.386;12.516;2023-03-01T01:02:20;15.83;;;8.90;;
19747;SDS011;10032;51.386;12.516;2023-03-01T01:04:46;17.23;;;9.20;;
19747;SDS011;10032;51.386;12.516;2023-03-01T01:07:12;14.07;;;8.70;;
19747;SDS011;10032;51.386;12.516;2023-03-01T01:09:38;15.23;;;9.27;;
19747;SDS011;10032;51.386;12.516;2023-03-01T01:12:04;14.97;;;8.43;;
19747;SDS011;10032;51.386;12.516;2023-03-01T01:14:30;15.53;;;9.53;;
19747;SDS011;10032;51.386;12.516;2023-03-01T01:16:55;16.80;;;9.40;;
19747;SDS011;10032;51.386;12.516;2023-03-01T01:19:21;16.97;;;9.50;;
19747;SDS011;10032;51.386;12.516;2023-03-01T01:21:47;14.73;;;9.23;;
19747;SDS011;10032;51.386;12.516;2023-03-01T01:24:13;16.67;;;9.77;;
19747;SDS011;10032;51.386;12.516;2023-03-01T01:26:39;12.97;;;8.43;;
19747;SDS011;10032;51.386;12.516;2023-03-01T01:29:05;13.57;;;8.67;;
19747;SDS011;10032;51.386;12.516;2023-03-01T01:31:31;23.27;;;9.93;;
19747;SDS011;10032;51.386;12.516;2023-03-01T01:33:58;15.00;;;8.93;;
19747;SDS011;10032;51.386;12.516;2023-03-01T01:36:25;16.30;;;9.77;;
19747;SDS011;10032;51.386;12.516;2023-03-01T01:38:51;15.57;;;9.90;;
19747;SDS011;10032;51.386;12.516;2023-03-01T01:41:17;14.57;;;9.73;;
19747;SDS011;10032;51.386;12.516;2023-03-01T01:43:44;15.93;;;9.50;;
19747;SDS011;10032;51.386;12.516;2023-03-01T01:46:30;13.00;;;9.03;;
19747;SDS011;10032;51.386;12.516;2023-03-01T01:49:02;14.50;;;8.70;;
19747;SDS011;10032;51.386;12.516;2023-03-01T01:51:31;14.70;;;9.30;;
19747;SDS011;10032;51.386;12.516;2023-03-01T01:54:04;12.87;;;9.60;;
19747;SDS011;10032;51.386;12.516;2023-03-01T01:56:36;15.97;;;10.57;;
19747;SDS011;10032;51.386;12.516;2023-03-01T01:59:04;14.47;;;9.60;;
19747;SDS011;10032;51.386;12.516;2023-03-01T02:01:30;17.57;;;9.73;;
19747;SDS011;10032;51.386;12.516;2023-03-01T02:03:55;14.73;;;9.40;;
19747;SDS011;10032;51.386;12.516;2023-03-01T02:06:24;16.13;;;10.70;;
19747;SDS011;10032;51.386;12.516;2023-03-01T02:08:54;15.13;;;9.63;;
19747;SDS011;10032;51.386;12.516;2023-03-01T02:11:22;18.30;;;9.93;;
19747;SDS011;10032;51.386;12.516;2023-03-01T02:13:48;18.03;;;10.37;;
19747;SDS011;10032;51.386;12.516;2023-03-01T02:16:15;16.07;;;9.80;;
19747;SDS011;10032;51.386;12.516;2023-03-01T02:18:41;22.83;;;10.23;;
19747;SDS011;10032;51.386;12.516;2023-03-01T02:23:43;14.47;;;10.00;;
19747;SDS011;10032;51.386;12.516;2023-03-01T02:26:17;15.43;;;8.97;;
19747;SDS011;10032;51.386;12.516;2023-03-01T02:29:02;19.20;;;11.27;;
19747;SDS011;10032;51.386;12.516;2023-03-01T02:31:30;15.60;;;9.53;;
19747;SDS011;10032;51.386;12.516;2023-03-01T02:34:13;18.13;;;9.80;;
19747;SDS011;10032;51.386;12.516;2023-03-01T02:36:43;13.60;;;9.70;;
19747;SDS011;10032;51.386;12.516;2023-03-01T02:39:13;15.43;;;9.80;;
19747;SDS011;10032;51.386;12.516;2023-03-01T02:41:43;14.67;;;9.77;;
19747;SDS011;10032;51.386;12.516;2023-03-01T02:44:12;15.73;;;9.50;;
19747;SDS011;10032;51.386;12.516;2023-03-01T02:46:45;14.17;;;9.33;;
19747;SDS011;10032;51.386;12.516;2023-03-01T02:49:30;15.63;;;10.47;;
19747;SDS011;10032;51.386;12.516;2023-03-01T02:52:01;14.93;;;9.70;;
19747;SDS011;10032;51.386;12.516;2023-03-01T02:57:07;17.77;;;10.13;;
19747;SDS011;10032;51.386;12.516;2023-03-01T02:59:34;13.47;;;10.07;;
19747;SDS011;10032;51.386;12.516;2023-03-01T03:02:06;18.97;;;10.67;;
19747;SDS011;10032;51.386;12.516;2023-03-01T03:04:32;16.13;;;10.10;;
19747;SDS011;10032;51.386;12.516;2023-03-01T03:06:58;18.57;;;10.83;;
19747;SDS011;10032;51.386;12.516;2023-03-01T03:09:24;15.60;;;10.67;;
19747;SDS011;10032;51.386;12.516;2023-03-01T03:11:49;14.47;;;10.53;;
19747;SDS011;10032;51.386;12.516;2023-03-01T03:14:15;16.67;;;9.90;;
19747;SDS011;10032;51.386;12.516;2023-03-01T03:16:49;17.77;;;11.03;;
19747;SDS011;10032;51.386;12.516;2023-03-01T03:19:15;17.10;;;10.60;;
19747;SDS011;10032;51.386;12.516;2023-03-01T03:21:43;18.03;;;10.73;;
19747;SDS011;10032;51.386;12.516;2023-03-01T03:24:08;16.03;;;11.07;;
19747;SDS011;10032;51.386;12.516;2023-03-01T03:26:34;18.10;;;10.83;;
19747;SDS011;10032;51.386;12.516;2023-03-01T03:28:59;12.57;;;9.57;;
19747;SDS011;10032;51.386;12.516;2023-03-01T03:31:25;19.70;;;12.23;;
19747;SDS011;10032;51.386;12.516;2023-03-01T03:33:51;16.07;;;10.27;;
19747;SDS011;10032;51.386;12.516;2023-03-01T03:36:20;18.93;;;10.20;;
19747;SDS011;10032;51.386;12.516;2023-03-01T03:38:48;15.77;;;10.30;;
19747;SDS011;10032;51.386;12.516;2023-03-01T03:41:14;15.83;;;10.63;;
19747;SDS011;10032;51.386;12.516;2023-03-01T03:43:40;16.03;;;10.70;;
19747;SDS011;10032;51.386;12.516;2023-03-01T03:46:07;19.17;;;10.07;;
19747;SDS011;10032;51.386;12.516;2023-03-01T03:48:41;17.40;;;10.87;;
19747;SDS011;10032;51.386;12.516;2023-03-01T03:51:15;13.90;;;10.20;;
19747;SDS011;10032;51.386;12.516;2023-03-01T03:53:43;17.20;;;10.17;;
19747;SDS011;10032;51.386;12.516;2023-03-01T03:56:09;14.60;;;10.03;;
19747;SDS011;10032;51.386;12.516;2023-03-01T03:58:36;18.37;;;11.17;;
19747;SDS011;10032;51.386;12.516;2023-03-01T04:01:01;18.23;;;10.03;;
19747;SDS011;10032;51.386;12.516;2023-03-01T04:03:27;19.67;;;11.73;;
19747;SDS011;10032;51.386;12.516;2023-03-01T04:05:54;20.07;;;11.87;;
19747;SDS011;10032;51.386;12.516;2023-03-01T04:08:23;15.93;;;11.40;;
19747;SDS011;10032;51.386;12.516;2023-03-01T04:10:52;16.10;;;9.83;;
19747;SDS011;10032;51.386;12.516;2023-03-01T04:13:22;17.60;;;10.37;;
19747;SDS011;10032;51.386;12.516;2023-03-01T04:15:51;20.13;;;11.93;;
19747;SDS011;10032;51.386;12.516;2023-03-01T04:18:18;22.47;;;11.87;;
19747;SDS011;10032;51.386;12.516;2023-03-01T04:20:45;17.27;;;11.97;;
19747;SDS011;10032;51.386;12.516;2023-03-01T04:23:15;22.20;;;11.73;;
19747;SDS011;10032;51.386;12.516;2023-03-01T04:25:51;16.13;;;10.77;;
19747;SDS011;10032;51.386;12.516;2023-03-01T04:28:19;19.33;;;12.07;;
19747;SDS011;10032;51.386;12.516;2023-03-01T04:30:49;23.47;;;12.10;;
19747;SDS011;10032;51.386;12.516;2023-03-01T04:33:16;18.30;;;11.43;;
19747;SDS011;10032;51.386;12.516;2023-03-01T04:35:41;18.90;;;11.83;;
19747;SDS011;10032;51.386;12.516;2023-03-01T04:38:07;20.57;;;11.83;;
19747;SDS011;10032;51.386;12.516;2023-03-01T04:40:33;23.33;;;12.60;;
19747;SDS011;10032;51.386;12.516;2023-03-01T04:42:58;19.77;;;12.73;;
19747;SDS011;10032;51.386;12.516;2023-03-01T04:45:24;20.90;;;12.37;;
19747;SDS011;10032;51.386;12.516;2023-03-01T04:47:49;18.37;;;12.50;;
19747;SDS011;10032;51.386;12.516;2023-03-01T04:50:17;20.10;;;12.93;;
19747;SDS011;10032;51.386;12.516;2023-03-01T04:52:45;24.43;;;13.37;;
19747;SDS011;10032;51.386;12.516;2023-03-01T04:55:12;19.10;;;12.50;;
19747;SDS011;10032;51.386;12.516;2023-03-01T04:57:38;20.13;;;11.97;;
19747;SDS011;10032;51.386;12.516;2023-03-01T05:00:04;19.77;;;11.10;;
19747;SDS011;10032;51.386;12.516;2023-03-01T05:03:06;20.20;;;12.53;;
19747;SDS011;10032;51.386;12.516;2023-03-01T05:05:34;20.43;;;12.83;;
19747;SDS011;10032;51.386;12.516;2023-03-01T05:08:03;21.77;;;11.90;;
19747;SDS011;10032;51.386;12.516;2023-03-01T05:10:33;21.53;;;12.13;;
19747;SDS011;10032;51.386;12.516;2023-03-01T05:13:01;22.50;;;12.53;;
19747;SDS011;10032;51.386;12.516;2023-03-01T05:15:27;18.20;;;11.67;;
19747;SDS011;10032;51.386;12.516;2023-03-01T05:17:55;17.27;;;10.57;;
19747;SDS011;10032;51.386;12.516;2023-03-01T05:20:29;21.90;;;11.13;;
19747;SDS011;10032;51.386;12.516;2023-03-01T05:22:56;17.57;;;11.13;;
19747;SDS011;10032;51.386;12.516;2023-03-01T05:25:23;17.63;;;10.93;;
19747;SDS011;10032;51.386;12.516;2023-03-01T05:27:49;14.00;;;9.73;;
19747;SDS011;10032;51.386;12.516;2023-03-01T05:30:15;18.67;;;10.20;;
19747;SDS011;10032;51.386;12.516;2023-03-01T05:32:48;15.17;;;10.50;;
19747;SDS011;10032;51.386;12.516;2023-03-01T05:35:15;16.87;;;10.83;;
19747;SDS011;10032;51.386;12.516;2023-03-01T05:37:42;17.13;;;10.33;;
19747;SDS011;10032;51.386;12.516;2023-03-01T05:40:11;18.07;;;11.13;;
19747;SDS011;10032;51.386;12.516;2023-03-01T05:42:44;16.97;;;10.47;;
19747;SDS011;10032;51.386;12.516;2023-03-01T05:45:14;19.00;;;10.33;;
19747;SDS011;10032;51.386;12.516;2023-03-01T05:47:41;15.00;;;10.03;;
19747;SDS011;10032;51.386;12.516;2023-03-01T05:50:31;18.93;;;10.87;;
19747;SDS011;10032;51.386;12.516;2023-03-01T05:52:58;20.83;;;10.93;;
19747;SDS011;10032;51.386;12.516;2023-03-01T05:55:24;18.67;;;11.33;;
19747;SDS011;10032;51.386;12.516;2023-03-01T05:57:49;17.33;;;10.67;;
19747;SDS011;10032;51.386;12.516;2023-03-01T06:00:15;18.60;;;10.73;;
19747;SDS011;10032;51.386;12.516;2023-03-01T06:02:42;15.77;;;10.00;;
19747;SDS011;10032;51.386;12.516;2023-03-01T06:05:08;17.73;;;10.80;;
19747;SDS011;10032;51.386;12.516;2023-03-01T06:07:35;16.90;;;9.87;;
19747;SDS011;10032;51.386;12.516;2023-03-01T06:10:01;21.23;;;10.27;;
19747;SDS011;10032;51.386;12.516;2023-03-01T06:12:32;16.50;;;9.77;;
19747;SDS011;10032;51.386;12.516;2023-03-01T06:14:58;12.30;;;9.27;;
19747;SDS011;10032;51.386;12.516;2023-03-01T06:17:24;15.77;;;10.47;;
19747;SDS011;10032;51.386;12.516;2023-03-01T06:19:50;16.47;;;10.20;;
19747;SDS011;10032;51.386;12.516;2023-03-01T06:22:15;15.90;;;10.27;;
19747;SDS011;10032;51.386;12.516;2023-03-01T06:24:40;17.73;;;10.77;;
19747;SDS011;10032;51.386;12.516;2023-03-01T06:27:06;17.63;;;9.70;;
19747;SDS011;10032;51.386;12.516;2023-03-01T06:29:31;18.67;;;10.03;;
19747;SDS011;10032;51.386;12.516;2023-03-01T06:31:57;15.03;;;10.57;;
19747;SDS011;10032;51.386;12.516;2023-03-01T06:34:22;16.00;;;10.70;;
19747;SDS011;10032;51.386;12.516;2023-03-01T06:36:48;19.43;;;10.63;;
19747;SDS011;10032;51.386;12.516;2023-03-01T06:39:13;21.40;;;12.53;;
19747;SDS011;10032;51.386;12.516;2023-03-01T06:41:38;17.47;;;10.30;;
19747;SDS011;10032;51.386;12.516;2023-03-01T06:44:04;19.00;;;10.27;;
19747;SDS011;10032;51.386;12.516;2023-03-01T06:46:29;19.47;;;9.90;;
19747;SDS011;10032;51.386;12.516;2023-03-01T06:48:55;19.13;;;11.30;;
19747;SDS011;10032;51.386;12.516;2023-03-01T06:51:21;16.03;;;10.30;;
19747;SDS011;10032;51.386;12.516;2023-03-01T06:53:46;20.53;;;10.57;;
19747;SDS011;10032;51.386;12.516;2023-03-01T06:56:12;18.93;;;10.17;;
19747;SDS011;10032;51.386;12.516;2023-03-01T06:58:37;16.00;;;9.73;;
19747;SDS011;10032;51.386;12.516;2023-03-01T07:01:09;16.73;;;10.57;;
19747;SDS011;10032;51.386;12.516;2023-03-01T07:03:34;16.93;;;10.73;;
19747;SDS011;10032;51.386;12.516;2023-03-01T07:06:00;17.23;;;11.27;;
19747;SDS011;10032;51.386;12.516;2023-03-01T07:08:25;18.50;;;10.03;;
19747;SDS011;10032;51.386;12.516;2023-03-01T07:10:55;16.00;;;10.53;;
19747;SDS011;10032;51.386;12.516;2023-03-01T07:13:21;14.03;;;9.27;;
19747;SDS011;10032;51.386;12.516;2023-03-01T07:15:47;18.73;;;10.47;;
19747;SDS011;10032;51.386;12.516;2023-03-01T07:18:12;16.43;;;11.10;;
19747;SDS011;10032;51.386;12.516;2023-03-01T07:20:37;16.87;;;11.00;;
19747;SDS011;10032;51.386;12.516;2023-03-01T07:23:03;16.33;;;10.17;;
19747;SDS011;10032;51.386;12.516;2023-03-01T07:25:31;20.80;;;11.00;;
19747;SDS011;10032;51.386;12.516;2023-03-01T07:27:57;12.60;;;9.73;;
19747;SDS011;10032;51.386;12.516;2023-03-01T07:30:23;16.60;;;10.70;;
19747;SDS011;10032;51.386;12.516;2023-03-01T07:32:52;15.77;;;9.73;;
19747;SDS011;10032;51.386;12.516;2023-03-01T07:35:18;20.53;;;10.10;;
19747;SDS011;10032;51.386;12.516;2023-03-01T07:37:43;16.77;;;10.30;;
19747;SDS011;10032;51.386;12.516;2023-03-01T07:40:09;18.50;;;11.00;;
19747;SDS011;10032;51.386;12.516;2023-03-01T07:42:36;16.17;;;9.10;;
19747;SDS011;10032;51.386;12.516;2023-03-01T07:45:02;13.30;;;10.10;;
19747;SDS011;10032;51.386;12.516;2023-03-01T07:47:28;16.27;;;10.67;;
19747;SDS011;10032;51.386;12.516;2023-03-01T07:49:53;16.53;;;10.47;;
19747;SDS011;10032;51.386;12.516;2023-03-01T07:52:18;17.07;;;10.20;;
19747;SDS011;10032;51.386;12.516;2023-03-01T07:54:44;14.33;;;10.33;;
19747;SDS011;10032;51.386;12.516;2023-03-01T07:57:09;18.90;;;10.63;;
19747;SDS011;10032;51.386;12.516;2023-03-01T07:59:35;16.67;;;10.07;;
19747;SDS011;10032;51.386;12.516;2023-03-01T08:02:01;19.20;;;10.93;;
19747;SDS011;10032;51.386;12.516;2023-03-01T08:04:26;19.43;;;10.73;;
19747;SDS011;10032;51.386;12.516;2023-03-01T08:06:52;15.87;;;10.60;;
19747;SDS011;10032;51.386;12.516;2023-03-01T08:09:18;17.23;;;10.17;;
19747;SDS011;10032;51.386;12.516;2023-03-01T08:11:43;24.30;;;11.87;;
19747;SDS011;10032;51.386;12.516;2023-03-01T08:14:09;17.07;;;10.67;;
19747;SDS011;10032;51.386;12.516;2023-03-01T08:16:35;18.43;;;11.93;;
19747;SDS011;10032;51.386;12.516;2023-03-01T08:19:07;16.10;;;10.97;;
19747;SDS011;10032;51.386;12.516;2023-03-01T08:21:35;17.43;;;10.40;;
19747;SDS011;10032;51.386;12.516;2023-03-01T08:24:01;14.87;;;11.10;;
19747;SDS011;10032;51.386;12.516;2023-03-01T08:26:28;17.53;;;9.77;;
19747;SDS011;10032;51.386;12.516;2023-03-01T08:28:53;19.07;;;10.23;;
19747;SDS011;10032;51.386;12.516;2023-03-01T08:31:20;15.70;;;10.47;;
19747;SDS011;10032;51.386;12.516;2023-03-01T08:33:48;16.30;;;10.03;;
19747;SDS011;10032;51.386;12.516;2023-03-01T08:36:19;14.90;;;9.93;;
19747;SDS011;10032;51.386;12.516;2023-03-01T08:38:46;19.00;;;10.90;;
19747;SDS011;10032;51.386;12.516;2023-03-01T08:41:12;16.83;;;9.70;;
19747;SDS011;10032;51.386;12.516;2023-03-01T08:43:37;15.73;;;9.83;;
19747;SDS011;10032;51.386;12.516;2023-03-01T08:46:03;15.43;;;10.07;;
19747;SDS011;10032;51.386;12.516;2023-03-01T08:48:28;15.97;;;9.90;;
19747;SDS011;10032;51.386;12.516;2023-03-01T08:50:54;14.43;;;9.47;;
19747;SDS011;10032;51.386;12.516;2023-03-01T08:53:20;15.33;;;9.77;;
19747;SDS011;10032;51.386;12.516;2023-03-01T08:55:45;18.43;;;9.83;;
19747;SDS011;10032;51.386;12.516;2023-03-01T08:58:11;17.80;;;9.90;;
19747;SDS011;10032;51.386;12.516;2023-03-01T09:00:37;15.77;;;9.27;;
19747;SDS011;10032;51.386;12.516;2023-03-01T09:03:03;15.70;;;9.60;;
19747;SDS011;10032;51.386;12.516;2023-03-01T09:05:31;14.87;;;9.50;;
19747;SDS011;10032;51.386;12.516;2023-03-01T09:07:57;16.93;;;10.40;;
19747;SDS011;10032;51.386;12.516;2023-03-01T09:10:23;18.33;;;10.40;;
19747;SDS011;10032;51.386;12.516;2023-03-01T09:12:48;23.47;;;10.57;;
19747;SDS011;10032;51.386;12.516;2023-03-01T09:15:14;19.53;;;11.03;;
19747;SDS011;10032;51.386;12.516;2023-03-01T09:17:39;20.97;;;10.13;;
19747;SDS011;10032;51.386;12.516;2023-03-01T09:20:04;17.87;;;10.50;;
19747;SDS011;10032;51.386;12.516;2023-03-01T09:22:32;15.57;;;10.00;;
19747;SDS011;10032;51.386;12.516;2023-03-01T09:24:59;14.90;;;10.57;;
19747;SDS011;10032;51.386;12.516;2023-03-01T09:27:24;14.43;;;9.47;;
19747;SDS011;10032;51.386;12.516;2023-03-01T09:29:50;15.87;;;9.73;;
19747;SDS011;10032;51.386;12.516;2023-03-01T09:32:15;16.63;;;10.77;;
19747;SDS011;10032;51.386;12.516;2023-03-01T09:34:41;16.13;;;9.87;;
19747;SDS011;10032;51.386;12.516;2023-03-01T09:37:25;17.50;;;10.57;;
19747;SDS011;10032;51.386;12.516;2023-03-01T09:39:51;18.07;;;10.77;;
19747;SDS011;10032;51.386;12.516;2023-03-01T09:42:17;16.10;;;9.67;;
19747;SDS011;10032;51.386;12.516;2023-03-01T09:44:52;16.80;;;9.60;;
19747;SDS011;10032;51.386;12.516;2023-03-01T09:47:30;16.90;;;10.60;;
19747;SDS011;10032;51.386;12.516;2023-03-01T09:55:15;18.87;;;9.77;;
19747;SDS011;10032;51.386;12.516;2023-03-01T10:11:22;15.03;;;9.00;;
19747;SDS011;10032;51.386;12.516;2023-03-01T10:19:03;18.73;;;11.23;;
19747;SDS011;10032;51.386;12.516;2023-03-01T10:21:30;17.03;;;9.23;;
19747;SDS011;10032;51.386;12.516;2023-03-01T10:24:08;16.83;;;9.87;;
19747;SDS011;10032;51.386;12.516;2023-03-01T10:26:44;19.27;;;10.77;;
19747;SDS011;10032;51.386;12.516;2023-03-01T10:29:14;19.23;;;10.57;;
19747;SDS011;10032;51.386;12.516;2023-03-01T10:31:47;22.00;;;11.43;;
19747;SDS011;10032;51.386;12.516;2023-03-01T10:34:15;15.97;;;9.33;;
19747;SDS011;10032;51.386;12.516;2023-03-01T10:36:44;17.17;;;10.60;;
19747;SDS011;10032;51.386;12.516;2023-03-01T10:39:15;19.33;;;10.93;;
19747;SDS011;10032;51.386;12.516;2023-03-01T10:41:55;17.60;;;9.87;;
19747;SDS011;10032;51.386;12.516;2023-03-01T10:47:17;18.37;;;10.70;;
19747;SDS011;10032;51.386;12.516;2023-03-01T10:49:52;24.47;;;11.50;;
19747;SDS011;10032;51.386;12.516;2023-03-01T10:52:32;18.83;;;10.67;;
19747;SDS011;10032;51.386;12.516;2023-03-01T10:57:43;22.87;;;10.73;;
19747;SDS011;10032;51.386;12.516;2023-03-01T11:02:50;19.10;;;10.47;;
19747;SDS011;10032;51.386;12.516;2023-03-01T11:05:27;17.77;;;9.87;;
19747;SDS011;10032;51.386;12.516;2023-03-01T11:07:58;21.60;;;11.33;;
19747;SDS011;10032;51.386;12.516;2023-03-01T11:10:26;17.37;;;10.57;;
19747;SDS011;10032;51.386;12.516;2023-03-01T11:12:54;14.40;;;9.47;;
19747;SDS011;10032;51.386;12.516;2023-03-01T11:15:32;15.90;;;10.50;;
19747;SDS011;10032;51.386;12.516;2023-03-01T11:17:58;19.70;;;10.53;;
19747;SDS011;10032;51.386;12.516;2023-03-01T11:20:24;16.53;;;10.00;;
19747;SDS011;10032;51.386;12.516;2023-03-01T11:23:01;16.07;;;9.73;;
19747;SDS011;10032;51.386;12.516;2023-03-01T11:25:35;17.83;;;10.33;;
19747;SDS011;10032;51.386;12.516;2023-03-01T11:28:03;15.63;;;10.17;;
19747;SDS011;10032;51.386;12.516;2023-03-01T11:30:32;16.60;;;9.30;;
19747;SDS011;10032;51.386;12.516;2023-03-01T11:35:33;17.03;;;9.83;;
19747;SDS011;10032;51.386;12.516;2023-03-01T11:38:16;13.73;;;8.67;;
19747;SDS011;10032;51.386;12.516;2023-03-01T11:40:50;17.20;;;10.37;;
19747;SDS011;10032;51.386;12.516;2023-03-01T11:43:29;17.03;;;10.10;;
19747;SDS011;10032;51.386;12.516;2023-03-01T11:46:28;17.70;;;9.97;;
19747;SDS011;10032;51.386;12.516;2023-03-01T11:52:00;15.07;;;8.57;;
19747;SDS011;10032;51.386;12.516;2023-03-01T12:08:41;14.23;;;8.57;;
19747;SDS011;10032;51.386;12.516;2023-03-01T12:22:32;15.33;;;10.03;;
19747;SDS011;10032;51.386;12.516;2023-03-01T12:27:43;15.97;;;10.13;;
19747;SDS011;10032;51.386;12.516;2023-03-01T12:30:39;14.10;;;9.00;;
19747;SDS011;10032;51.386;12.516;2023-03-01T12:49:07;12.63;;;8.17;;
19747;SDS011;10032;51.386;12.516;2023-03-01T12:51:39;13.33;;;9.27;;
19747;SDS011;10032;51.386;12.516;2023-03-01T12:54:22;15.57;;;9.30;;
19747;SDS011;10032;51.386;12.516;2023-03-01T12:56:55;14.80;;;8.67;;
19747;SDS011;10032;51.386;12.516;2023-03-01T12:59:33;16.30;;;8.63;;
19747;SDS011;10032;51.386;12.516;2023-03-01T13:04:47;11.43;;;7.40;;
19747;SDS011;10032;51.386;12.516;2023-03-01T13:07:25;13.03;;;8.43;;
19747;SDS011;10032;51.386;12.516;2023-03-01T13:10:02;14.60;;;8.90;;
19747;SDS011;10032;51.386;12.516;2023-03-01T13:17:58;14.10;;;8.53;;
19747;SDS011;10032;51.386;12.516;2023-03-01T13:23:41;16.13;;;7.67;;
19747;SDS011;10032;51.386;12.516;2023-03-01T13:31:07;10.20;;;7.10;;
19747;SDS011;10032;51.386;12.516;2023-03-01T13:33:44;15.30;;;8.27;;
19747;SDS011;10032;51.386;12.516;2023-03-01T13:36:13;12.77;;;6.93;;
19747;SDS011;10032;51.386;12.516;2023-03-01T13:39:02;13.40;;;7.53;;
19747;SDS011;10032;51.386;12.516;2023-03-01T13:46:59;10.77;;;7.17;;
19747;SDS011;10032;51.386;12.516;2023-03-01T13:50:19;12.20;;;6.27;;
19747;SDS011;10032;51.386;12.516;2023-03-01T13:55:23;10.07;;;5.83;;
19747;SDS011;10032;51.386;12.516;2023-03-01T13:57:56;7.70;;;5.03;;
19747;SDS011;10032;51.386;12.516;2023-03-01T14:00:25;9.50;;;5.27;;
19747;SDS011;10032;51.386;12.516;2023-03-01T14:03:09;8.83;;;5.77;;
19747;SDS011;10032;51.386;12.516;2023-03-01T14:05:37;9.10;;;6.10;;
19747;SDS011;10032;51.386;12.516;2023-03-01T14:08:04;8.17;;;5.33;;
19747;SDS011;10032;51.386;12.516;2023-03-01T14:13:31;11.30;;;5.80;;
19747;SDS011;10032;51.386;12.516;2023-03-01T14:21:28;11.03;;;5.53;;
19747;SDS011;10032;51.386;12.516;2023-03-01T14:23:55;9.10;;;4.80;;
19747;SDS011;10032;51.386;12.516;2023-03-01T14:26:21;8.77;;;5.60;;
19747;SDS011;10032;51.386;12.516;2023-03-01T14:28:48;9.37;;;6.50;;
19747;SDS011;10032;51.386;12.516;2023-03-01T14:31:31;12.53;;;5.97;;
19747;SDS011;10032;51.386;12.516;2023-03-01T14:33:58;9.10;;;6.00;;
19747;SDS011;10032;51.386;12.516;2023-03-01T14:36:28;13.30;;;5.90;;
19747;SDS011;10032;51.386;12.516;2023-03-01T14:38:57;9.33;;;5.43;;
19747;SDS011;10032;51.386;12.516;2023-03-01T14:41:31;10.70;;;6.33;;
19747;SDS011;10032;51.386;12.516;2023-03-01T14:44:00;8.87;;;6.03;;
19747;SDS011;10032;51.386;12.516;2023-03-01T14:46:30;9.70;;;4.97;;
19747;SDS011;10032;51.386;12.516;2023-03-01T14:49:01;9.23;;;5.80;;
19747;SDS011;10032;51.386;12.516;2023-03-01T14:51:29;9.47;;;5.63;;
19747;SDS011;10032;51.386;12.516;2023-03-01T14:53:55;10.20;;;5.90;;
19747;SDS011;10032;51.386;12.516;2023-03-01T14:56:21;10.63;;;5.60;;
19747;SDS011;10032;51.386;12.516;2023-03-01T14:58:46;9.43;;;5.27;;
19747;SDS011;10032;51.386;12.516;2023-03-01T15:01:17;9.00;;;6.13;;
19747;SDS011;10032;51.386;12.516;2023-03-01T15:03:47;7.97;;;5.33;;
19747;SDS011;10032;51.386;12.516;2023-03-01T15:06:14;9.53;;;5.73;;
19747;SDS011;10032;51.386;12.516;2023-03-01T15:08:44;8.50;;;5.57;;
19747;SDS011;10032;51.386;12.516;2023-03-01T15:13:39;10.30;;;4.90;;
19747;SDS011;10032;51.386;12.516;2023-03-01T15:18:36;8.93;;;5.13;;
19747;SDS011;10032;51.386;12.516;2023-03-01T15:21:13;8.73;;;5.43;;
19747;SDS011;10032;51.386;12.516;2023-03-01T15:23:41;9.67;;;5.00;;
19747;SDS011;10032;51.386;12.516;2023-03-01T15:26:17;8.60;;;5.10;;
19747;SDS011;10032;51.386;12.516;2023-03-01T15:28:52;10.47;;;5.47;;
19747;SDS011;10032;51.386;12.516;2023-03-01T15:31:32;7.97;;;5.37;;
19747;SDS011;10032;51.386;12.516;2023-03-01T15:39:03;11.60;;;5.40;;
19747;SDS011;10032;51.386;12.516;2023-03-01T15:41:52;8.30;;;4.47;;
19747;SDS011;10032;51.386;12.516;2023-03-01T15:44:17;8.47;;;5.40;;
19747;SDS011;10032;51.386;12.516;2023-03-01T15:46:49;8.23;;;5.03;;
19747;SDS011;10032;51.386;12.516;2023-03-01T15:49:57;9.00;;;5.17;;
19747;SDS011;10032;51.386;12.516;2023-03-01T15:52:11;9.33;;;5.00;;
19747;SDS011;10032;51.386;12.516;2023-03-01T15:54:42;7.97;;;5.23;;
19747;SDS011;10032;51.386;12.516;2023-03-01T15:57:10;7.83;;;5.27;;
19747;SDS011;10032;51.386;12.516;2023-03-01T15:59:38;8.87;;;5.97;;
19747;SDS011;10032;51.386;12.516;2023-03-01T16:02:08;8.27;;;5.23;;
19747;SDS011;10032;51.386;12.516;2023-03-01T16:04:37;8.23;;;5.30;;
19747;SDS011;10032;51.386;12.516;2023-03-01T16:07:03;7.73;;;5.20;;
19747;SDS011;10032;51.386;12.516;2023-03-01T16:09:28;9.23;;;5.63;;
19747;SDS011;10032;51.386;12.516;2023-03-01T16:11:54;8.30;;;5.30;;
19747;SDS011;10032;51.386;12.516;2023-03-01T16:14:19;8.93;;;5.03;;
19747;SDS011;10032;51.386;12.516;2023-03-01T16:16:45;9.90;;;6.53;;
19747;SDS011;10032;51.386;12.516;2023-03-01T16:19:13;10.63;;;5.73;;
19747;SDS011;10032;51.386;12.516;2023-03-01T16:21:39;9.40;;;5.50;;
19747;SDS011;10032;51.386;12.516;2023-03-01T16:24:05;7.67;;;5.57;;
19747;SDS011;10032;51.386;12.516;2023-03-01T16:26:31;7.53;;;5.80;;
19747;SDS011;10032;51.386;12.516;2023-03-01T16:28:57;8.57;;;5.23;;
19747;SDS011;10032;51.386;12.516;2023-03-01T16:31:23;7.60;;;5.23;;
19747;SDS011;10032;51.386;12.516;2023-03-01T16:33:55;11.37;;;5.23;;
19747;SDS011;10032;51.386;12.516;2023-03-01T16:36:21;8.30;;;4.93;;
19747;SDS011;10032;51.386;12.516;2023-03-01T16:38:49;8.33;;;4.97;;